TimeEDT,TemperatureF,Dew PointF,Humidity,Sea Level PressureIn,VisibilityMPH,Wind Direction,Wind SpeedMPH,Gust SpeedMPH,PrecipitationIn,Events,Conditions,WindDirDegrees,DateUTC
12:15 AM,36.1,33.3,89,29.63,10.0,West,8.1,20.7,N/A,,Overcast,260,2013-05-12 04:15:00
12:36 AM,35.8,33.1,90,29.63,10.0,West,8.1,17.3,N/A,,Overcast,260,2013-05-12 04:36:00
12:55 AM,36.0,33.3,90,29.62,10.0,WSW,8.1,16.1,N/A,,Overcast,250,2013-05-12 04:55:00
1:15 AM,36.0,33.4,91,29.61,10.0,West,11.5,18.4,N/A,,Overcast,260,2013-05-12 05:15:00
1:36 AM,36.5,33.8,90,29.60,10.0,WSW,10.4,23.0,N/A,,Overcast,250,2013-05-12 05:36:00
1:55 AM,36.9,33.8,89,29.59,10.0,WSW,11.5,21.9,N/A,,Overcast,250,2013-05-12 05:55:00
2:16 AM,36.9,33.8,89,29.58,10.0,WSW,10.4,21.9,N/A,,Drizzle,250,2013-05-12 06:16:00
2:35 AM,36.0,34.0,93,29.58,7.0,West,11.5,20.7,N/A,Rain,Light Rain,260,2013-05-12 06:35:00
2:56 AM,35.2,33.8,94,29.57,5.0,West,12.7,20.7,N/A,Rain,Light Rain,280,2013-05-12 06:56:00
3:16 AM,34.9,34.0,97,29.57,7.0,West,11.5,20.7,N/A,Rain,Light Rain,280,2013-05-12 07:16:00
3:35 AM,34.5,34.0,98,29.57,5.0,West,13.8,23.0,N/A,Snow,Light Snow,280,2013-05-12 07:35:00
3:56 AM,34.9,34.2,97,29.58,7.0,WNW,10.4,21.9,N/A,Rain,Light Rain,290,2013-05-12 07:56:00
4:16 AM,35.1,34.2,97,29.58,7.0,NW,11.5,24.2,N/A,Rain,Light Rain,310,2013-05-12 08:16:00
4:35 AM,34.7,33.8,97,29.59,7.0,NW,10.4,24.2,N/A,Rain,Light Rain,320,2013-05-12 08:35:00
4:56 AM,34.3,33.4,97,29.60,5.0,NW,15.0,21.9,N/A,Rain,Light Rain,320,2013-05-12 08:56:00
5:35 AM,33.1,32.5,98,29.63,1.8,NW,17.3,26.5,N/A,Snow,Light Snow,320,2013-05-12 09:35:00
5:56 AM,32.9,32.4,98,29.64,1.2,NNW,12.7,19.6,N/A,Snow,Snow,330,2013-05-12 09:56:00
6:15 AM,32.9,32.7,99,29.64,1.5,NW,8.1,17.3,N/A,Snow,Light Snow,310,2013-05-12 10:15:00
6:35 AM,33.3,32.7,98,29.65,10.0,NW,8.1,18.4,N/A,,Overcast,310,2013-05-12 10:35:00
6:56 AM,33.3,32.2,96,29.66,7.0,NW,15.0,25.3,N/A,Snow,Light Snow,320,2013-05-12 10:56:00
7:15 AM,33.3,31.3,92,29.67,10.0,WNW,15.0,23.0,N/A,,Overcast,300,2013-05-12 11:15:00
7:36 AM,33.4,30.6,89,29.68,10.0,WNW,11.5,27.6,N/A,,Overcast,300,2013-05-12 11:36:00
7:56 AM,33.4,30.0,87,29.68,10.0,WNW,18.4,29.9,N/A,,Overcast,300,2013-05-12 11:56:00
8:15 AM,33.6,29.5,85,29.68,10.0,WNW,17.3,29.9,N/A,,Overcast,300,2013-05-12 12:15:00
8:36 AM,33.8,29.1,83,29.68,10.0,WNW,17.3,32.2,N/A,,Mostly Cloudy,300,2013-05-12 12:36:00
8:56 AM,34.0,29.3,83,29.68,10.0,WNW,19.6,33.4,N/A,,Overcast,290,2013-05-12 12:56:00
9:15 AM,34.7,29.3,81,29.69,10.0,WNW,16.1,33.4,N/A,,Overcast,300,2013-05-12 13:15:00
9:36 AM,34.5,28.9,80,29.70,10.0,NW,18.4,34.5,N/A,,Overcast,310,2013-05-12 13:36:00
9:55 AM,33.4,28.9,84,29.70,2.5,NW,19.6,34.5,N/A,Snow,Light Snow,310,2013-05-12 13:55:00
10:15 AM,32.2,29.7,90,29.71,0.8,WNW,17.3,31.1,N/A,Snow,Light Snow,300,2013-05-12 14:15:00
10:36 AM,32.0,29.5,90,29.71,0.8,WNW,21.9,33.4,N/A,Snow,Light Snow,300,2013-05-12 14:36:00
10:55 AM,32.0,29.3,90,29.71,1.2,WNW,16.1,33.4,N/A,Snow,Light Snow,290,2013-05-12 14:55:00
11:15 AM,32.0,29.3,90,29.71,0.8,WNW,17.3,32.2,N/A,Snow,Light Snow,300,2013-05-12 15:15:00
11:36 AM,32.0,30.7,95,29.72,0.2,WNW,17.3,29.9,N/A,Snow,Snow,300,2013-05-12 15:36:00
11:55 AM,31.1,30.2,96,29.74,0.2,NW,18.4,29.9,N/A,Snow,Snow,310,2013-05-12 15:55:00
12:16 PM,31.3,30.6,97,29.75,0.2,WNW,15.0,28.8,N/A,Snow,Snow,300,2013-05-12 16:16:00
12:36 PM,31.6,30.7,96,29.76,0.5,NW,11.5,31.1,N/A,Snow,Snow,310,2013-05-12 16:36:00
12:55 PM,31.8,30.4,94,29.77,0.5,NW,17.3,29.9,N/A,Snow,Light Snow,310,2013-05-12 16:55:00
1:16 PM,32.0,31.1,96,29.78,1.0,NW,12.7,20.7,N/A,Snow,Light Snow,310,2013-05-12 17:16:00
1:36 PM,32.0,30.2,93,29.79,0.8,NW,12.7,27.6,N/A,Snow,Light Snow,310,2013-05-12 17:36:00
2:16 PM,32.0,30.6,94,29.80,1.0,WNW,15.0,26.5,N/A,Snow,Light Snow,300,2013-05-12 18:16:00
2:35 PM,32.5,30.9,94,29.80,1.2,NW,13.8,24.2,N/A,Snow,Light Snow,310,2013-05-12 18:35:00
2:56 PM,32.9,30.6,91,29.81,1.2,NW,17.3,33.4,N/A,Snow,Light Snow,310,2013-05-12 18:56:00
3:15 PM,32.9,30.6,91,29.82,1.5,WNW,18.4,28.8,N/A,Snow,Light Snow,300,2013-05-12 19:15:00
3:35 PM,33.4,30.2,88,29.83,4.0,WNW,17.3,26.5,N/A,Snow,Light Snow,300,2013-05-12 19:35:00
3:56 PM,33.8,30.0,86,29.84,3.0,WNW,16.1,29.9,N/A,Snow,Light Snow,300,2013-05-12 19:56:00
4:15 PM,34.2,29.7,84,29.84,10.0,NW,17.3,32.2,N/A,,Overcast,310,2013-05-12 20:15:00
4:35 PM,34.3,29.8,84,29.85,10.0,WNW,19.6,29.9,N/A,,Overcast,300,2013-05-12 20:35:00
4:56 PM,34.3,30.2,85,29.86,10.0,WNW,13.8,27.6,N/A,,Overcast,300,2013-05-12 20:56:00
5:15 PM,34.3,30.9,87,29.87,10.0,WNW,12.7,28.8,N/A,,Overcast,300,2013-05-12 21:15:00
5:35 PM,34.5,31.1,87,29.88,5.0,NW,11.5,28.8,N/A,Snow,Light Snow,320,2013-05-12 21:35:00
5:56 PM,34.9,30.6,84,29.89,7.0,NW,10.4,32.2,N/A,,Overcast,310,2013-05-12 21:56:00
6:15 PM,34.7,30.0,83,29.90,10.0,NW,15.0,26.5,N/A,,Overcast,310,2013-05-12 22:15:00
6:36 PM,34.0,31.1,89,29.92,10.0,NW,12.7,33.4,N/A,,Overcast,310,2013-05-12 22:36:00
6:56 PM,34.0,30.9,89,29.92,10.0,WNW,11.5,29.9,N/A,,Overcast,300,2013-05-12 22:56:00
7:15 PM,34.0,30.9,89,29.93,10.0,NW,13.8,24.2,N/A,,Overcast,320,2013-05-12 23:15:00
7:36 PM,34.0,30.0,85,29.93,10.0,NW,12.7,23.0,N/A,,Overcast,310,2013-05-12 23:36:00
7:55 PM,34.2,29.3,82,29.94,10.0,NW,6.9,21.9,N/A,,Overcast,310,2013-05-12 23:55:00
8:15 PM,34.5,29.8,83,29.95,10.0,NW,11.5,25.3,N/A,,Overcast,310,2013-05-13 00:15:00
8:36 PM,34.3,31.1,88,29.95,10.0,NW,10.4,17.3,N/A,Snow,Light Snow,310,2013-05-13 00:36:00
8:55 PM,34.0,30.9,89,29.95,10.0,WNW,8.1,-,N/A,Snow,Light Snow,300,2013-05-13 00:55:00
9:15 PM,34.0,30.7,88,29.96,10.0,WNW,11.5,23.0,N/A,,Overcast,300,2013-05-13 01:15:00
9:36 PM,34.0,30.7,88,29.96,10.0,WNW,6.9,-,N/A,Snow,Light Snow,300,2013-05-13 01:36:00
9:55 PM,33.8,30.7,89,29.97,7.0,WNW,6.9,17.3,N/A,Snow,Light Snow,290,2013-05-13 01:55:00
10:16 PM,34.0,30.9,89,29.97,10.0,WNW,9.2,-,N/A,,Overcast,290,2013-05-13 02:16:00
10:36 PM,34.0,30.7,88,29.98,10.0,WNW,9.2,-,N/A,,Overcast,300,2013-05-13 02:36:00
10:55 PM,33.8,30.2,87,29.98,10.0,West,6.9,17.3,N/A,,Overcast,280,2013-05-13 02:55:00
11:16 PM,34.0,30.0,85,29.98,10.0,West,5.8,17.3,N/A,,Overcast,280,2013-05-13 03:16:00
11:36 PM,34.2,30.2,85,29.97,10.0,WNW,8.1,-,N/A,,Overcast,290,2013-05-13 03:36:00
11:55 PM,34.2,30.0,85,29.97,10.0,WNW,9.2,16.1,N/A,,Mostly Cloudy,290,2013-05-13 03:55:00